Time;durP1;ratioP1;P1;durP2;ratioP2;P2;SDS_P1;SDS_P2;PMS_P1;PMS_P2;Temp;Humidity;BMP_temperature;BMP_pressure;BME280_temperature;BME280_humidity;BME280_pressure;Samples;Min_cycle;Max_cycle;Signal;HPM_P1;HPM_P2
2023/12/14 00:02:05;;;;;;;49.97;26.20;;;9.00;99.90;;;;;;5113939;28;20173;-61
2023/12/14 00:04:31;;;;;;;53.67;26.85;;;9.00;99.90;;;;;;5113934;28;20576;-61
2023/12/14 00:06:56;;;;;;;54.88;29.33;;;9.10;99.90;;;;;;5113867;28;20252;-61
2023/12/14 00:09:22;;;;;;;54.08;27.08;;;9.10;99.90;;;;;;5113790;28;20293;-60
2023/12/14 00:11:47;;;;;;;51.25;26.50;;;9.10;99.90;;;;;;5112837;28;20169;-60
2023/12/14 00:14:13;;;;;;;53.10;28.02;;;9.00;99.90;;;;;;5113822;28;20174;-60
2023/12/14 00:16:39;;;;;;;49.53;24.98;;;9.10;99.90;;;;;;5114083;28;20646;-61
2023/12/14 00:19:05;;;;;;;46.75;26.20;;;9.00;99.90;;;;;;5113715;28;20499;-61
2023/12/14 00:21:30;;;;;;;50.20;26.17;;;9.00;99.90;;;;;;5113534;28;20229;-61
2023/12/14 00:23:56;;;;;;;47.90;26.10;;;9.00;99.90;;;;;;5113594;28;20263;-61
2023/12/14 00:26:21;;;;;;;51.22;26.42;;;9.00;99.90;;;;;;5113387;28;20184;-60
2023/12/14 00:28:47;;;;;;;54.42;27.77;;;9.00;99.90;;;;;;5113982;28;20288;-61
2023/12/14 00:31:13;;;;;;;50.63;25.42;;;8.90;99.90;;;;;;5113752;28;20209;-61
2023/12/14 00:33:38;;;;;;;48.35;25.95;;;8.90;99.90;;;;;;5113644;28;20518;-60
2023/12/14 00:36:04;;;;;;;46.83;25.90;;;8.90;99.90;;;;;;5113608;28;20177;-60
2023/12/14 00:38:30;;;;;;;48.13;26.77;;;8.90;99.90;;;;;;5112303;28;20179;-61
2023/12/14 00:40:56;;;;;;;58.47;28.50;;;9.00;99.90;;;;;;5114044;28;20203;-61
2023/12/14 00:43:21;;;;;;;57.70;29.45;;;8.90;99.90;;;;;;5117518;28;20646;-61
2023/12/14 00:45:47;;;;;;;61.75;29.63;;;9.00;99.90;;;;;;5117421;28;20173;-60
2023/12/14 00:48:13;;;;;;;56.35;29.20;;;9.00;99.90;;;;;;5117599;28;20180;-60
2023/12/14 00:50:38;;;;;;;59.67;29.33;;;9.00;99.90;;;;;;5117291;28;20205;-61
2023/12/14 00:53:04;;;;;;;54.65;28.00;;;9.00;99.90;;;;;;5117570;28;20208;-60
2023/12/14 00:55:29;;;;;;;53.20;28.05;;;8.90;99.90;;;;;;5117299;28;20252;-62
2023/12/14 00:57:55;;;;;;;53.75;28.55;;;8.90;99.90;;;;;;5117239;28;20682;-62
2023/12/14 01:00:21;;;;;;;52.30;27.35;;;8.80;99.90;;;;;;5117448;28;20173;-61
2023/12/14 01:02:46;;;;;;;46.33;25.58;;;8.70;99.90;;;;;;5117096;28;20177;-60
2023/12/14 01:05:12;;;;;;;47.47;25.63;;;8.70;99.90;;;;;;5117239;28;20203;-60
2023/12/14 01:07:38;;;;;;;37.58;22.70;;;8.70;99.90;;;;;;5117042;28;20176;-61
2023/12/14 01:10:04;;;;;;;38.65;21.63;;;8.70;99.90;;;;;;5117018;28;20205;-61
2023/12/14 01:12:29;;;;;;;41.25;22.55;;;8.70;99.90;;;;;;5116948;27;20169;-61
2023/12/14 01:14:55;;;;;;;39.50;22.48;;;8.60;99.90;;;;;;5116903;28;20177;-61
2023/12/14 01:17:21;;;;;;;36.83;22.70;;;8.60;99.90;;;;;;5116848;28;20174;-61
2023/12/14 01:19:46;;;;;;;38.90;23.17;;;8.60;99.90;;;;;;5116515;28;20169;-60
2023/12/14 01:22:12;;;;;;;36.08;21.73;;;8.60;99.90;;;;;;5116508;28;20320;-60
2023/12/14 01:24:37;;;;;;;32.00;20.33;;;8.60;99.90;;;;;;5116727;28;20175;-60
2023/12/14 01:27:03;;;;;;;36.85;21.67;;;8.70;99.90;;;;;;5116653;28;20201;-61
2023/12/14 01:29:29;;;;;;;32.03;20.27;;;8.60;99.90;;;;;;5116565;28;20256;-60
2023/12/14 01:31:54;;;;;;;32.65;21.55;;;8.60;99.90;;;;;;5116606;28;20227;-61
2023/12/14 01:34:20;;;;;;;34.38;20.95;;;8.50;99.90;;;;;;5116513;28;20176;-62
2023/12/14 01:36:46;;;;;;;35.42;20.55;;;8.50;99.90;;;;;;5116172;28;20630;-60
2023/12/14 01:39:11;;;;;;;36.03;21.25;;;8.50;99.90;;;;;;5116387;28;20207;-60
2023/12/14 01:41:37;;;;;;;34.42;20.00;;;8.40;99.90;;;;;;5116012;28;20181;-60
2023/12/14 01:44:03;;;;;;;32.55;20.70;;;8.40;99.90;;;;;;5116151;28;20233;-61
2023/12/14 01:46:28;;;;;;;35.22;20.83;;;8.50;99.90;;;;;;5116303;28;20172;-61
2023/12/14 01:48:54;;;;;;;33.67;20.45;;;8.40;99.90;;;;;;5116488;28;20181;-60
2023/12/14 01:51:20;;;;;;;33.83;19.67;;;8.40;99.90;;;;;;5116134;28;20205;-61
2023/12/14 01:53:45;;;;;;;35.15;19.75;;;8.30;99.90;;;;;;5115079;28;20630;-61
2023/12/14 01:56:11;;;;;;;37.08;21.67;;;8.30;99.90;;;;;;5116387;28;20169;-60
2023/12/14 01:58:37;;;;;;;34.55;19.98;;;8.20;99.90;;;;;;5115795;28;20214;-60
2023/12/14 02:01:20;;;;;;;31.20;17.88;;;8.10;99.90;;;;;;5116093;28;20180;-60
2023/12/14 02:03:46;;;;;;;33.30;18.80;;;8.00;99.90;;;;;;5116024;28;20162;-61
2023/12/14 02:06:12;;;;;;;34.17;20.13;;;7.90;99.90;;;;;;5115905;28;20256;-61
2023/12/14 02:08:38;;;;;;;30.90;19.85;;;7.80;99.90;;;;;;5115896;28;20215;-60
2023/12/14 02:11:03;;;;;;;30.98;20.25;;;7.90;99.90;;;;;;5115457;28;20231;-60
2023/12/14 02:13:29;;;;;;;32.22;19.80;;;7.90;99.90;;;;;;5115759;28;20216;-60
2023/12/14 02:15:55;;;;;;;29.52;17.45;;;7.80;99.90;;;;;;5115732;28;20533;-61
2023/12/14 02:18:20;;;;;;;26.67;17.20;;;7.80;99.90;;;;;;5115644;28;20633;-60
2023/12/14 02:20:46;;;;;;;27.35;17.48;;;7.80;99.90;;;;;;5115419;28;20177;-60
2023/12/14 02:23:11;;;;;;;26.25;16.92;;;7.80;99.90;;;;;;5115819;28;20225;-60
2023/12/14 02:25:37;;;;;;;28.83;18.17;;;7.70;99.90;;;;;;5115834;28;20174;-60
2023/12/14 02:28:03;;;;;;;25.33;17.30;;;7.80;99.90;;;;;;5115504;28;20176;-60
2023/12/14 02:30:28;;;;;;;30.20;17.38;;;7.80;99.90;;;;;;5115376;28;20201;-61
2023/12/14 02:32:54;;;;;;;27.20;18.65;;;7.70;99.90;;;;;;5115419;28;20638;-62
2023/12/14 02:35:20;;;;;;;28.35;19.63;;;7.50;99.90;;;;;;5115302;28;20669;-61
2023/12/14 02:37:45;;;;;;;26.00;19.42;;;7.50;99.90;;;;;;5115008;28;20169;-60
2023/12/14 02:40:11;;;;;;;29.73;18.25;;;7.50;99.90;;;;;;5115252;28;20186;-62
2023/12/14 02:42:37;;;;;;;24.83;17.05;;;7.40;99.90;;;;;;5115215;28;20621;-60
2023/12/14 02:45:03;;;;;;;22.98;15.60;;;7.40;99.90;;;;;;5115395;28;20633;-60
2023/12/14 02:47:29;;;;;;;22.63;16.30;;;7.40;99.90;;;;;;5115149;28;20267;-61
2023/12/14 02:49:55;;;;;;;22.40;15.98;;;7.50;99.90;;;;;;5114750;28;20208;-61
2023/12/14 02:52:22;;;;;;;19.42;14.07;;;7.50;99.90;;;;;;5115004;28;20288;-61
2023/12/14 02:54:47;;;;;;;17.63;13.23;;;7.50;99.90;;;;;;5114894;28;20174;-60
2023/12/14 02:57:13;;;;;;;20.45;14.77;;;7.40;99.90;;;;;;5114762;28;20175;-61
2023/12/14 02:59:39;;;;;;;17.52;15.65;;;7.40;99.90;;;;;;5114893;28;20188;-60
2023/12/14 03:02:05;;;;;;;16.95;13.10;;;7.40;99.90;;;;;;5114761;28;20225;-60
2023/12/14 03:04:31;;;;;;;18.45;14.52;;;7.50;99.90;;;;;;5114623;28;20268;-60
2023/12/14 03:06:57;;;;;;;18.48;14.73;;;7.50;99.90;;;;;;5114723;28;20260;-61
2023/12/14 03:09:22;;;;;;;22.48;16.63;;;7.40;99.90;;;;;;5114605;28;20208;-60
2023/12/14 03:11:49;;;;;;;22.58;16.98;;;7.30;99.90;;;;;;5114623;28;20743;-62
2023/12/14 03:14:15;;;;;;;22.17;17.42;;;7.30;99.90;;;;;;5114674;28;20177;-60
2023/12/14 03:16:40;;;;;;;22.77;17.42;;;7.20;99.90;;;;;;5114667;28;20526;-62
2023/12/14 03:19:06;;;;;;;23.95;17.55;;;7.20;99.90;;;;;;5114825;28;20603;-63
2023/12/14 03:21:31;;;;;;;22.42;18.08;;;7.30;99.90;;;;;;5114292;28;20238;-60
2023/12/14 03:23:57;;;;;;;22.98;16.90;;;7.20;99.90;;;;;;5114506;28;20180;-63
2023/12/14 03:26:23;;;;;;;23.40;17.05;;;7.20;99.90;;;;;;5114347;28;20267;-62
2023/12/14 03:28:48;;;;;;;23.95;17.77;;;7.10;99.90;;;;;;5114042;28;20181;-62
2023/12/14 03:31:14;;;;;;;21.77;16.77;;;7.00;99.90;;;;;;5114232;28;20218;-62
2023/12/14 03:33:42;;;;;;;22.42;17.13;;;7.00;99.90;;;;;;5114268;28;20180;-64
2023/12/14 03:36:07;;;;;;;23.13;17.25;;;7.00;99.90;;;;;;5114220;28;20183;-62
2023/12/14 03:38:33;;;;;;;21.25;17.08;;;7.00;99.90;;;;;;5113954;28;20169;-62
2023/12/14 03:40:59;;;;;;;20.98;16.02;;;7.00;99.90;;;;;;5114145;28;20187;-62
2023/12/14 03:43:24;;;;;;;22.23;16.65;;;7.00;99.90;;;;;;5114169;28;20176;-62
2023/12/14 03:45:50;;;;;;;21.35;17.15;;;7.00;99.90;;;;;;5113858;28;20177;-60
2023/12/14 03:48:16;;;;;;;21.33;15.98;;;7.00;99.90;;;;;;5114171;28;20168;-60
2023/12/14 03:50:41;;;;;;;16.10;13.68;;;7.10;99.90;;;;;;5113755;28;20692;-62
2023/12/14 03:53:07;;;;;;;17.20;13.93;;;7.10;99.90;;;;;;5113772;28;20177;-62
2023/12/14 03:55:34;;;;;;;19.70;15.23;;;7.10;99.90;;;;;;5112728;28;20215;-63
2023/12/14 03:57:59;;;;;;;17.95;14.50;;;7.00;99.90;;;;;;5113964;28;20224;-62
2023/12/14 04:00:25;;;;;;;18.00;14.48;;;7.00;99.90;;;;;;5114217;28;20176;-62
2023/12/14 04:02:51;;;;;;;18.90;14.43;;;7.00;99.90;;;;;;5113921;28;20260;-62
2023/12/14 04:05:16;;;;;;;18.40;14.55;;;7.00;99.90;;;;;;5113970;28;20226;-62
2023/12/14 04:07:42;;;;;;;18.48;15.57;;;7.00;99.90;;;;;;5113882;28;20218;-62
2023/12/14 04:10:11;;;;;;;18.05;15.05;;;7.10;99.90;;;;;;5113753;28;20304;-62
2023/12/14 04:12:38;;;;;;;20.27;15.20;;;7.10;99.90;;;;;;5113632;28;20201;-62
2023/12/14 04:15:05;;;;;;;19.58;14.95;;;7.20;99.90;;;;;;5113611;28;20631;-62
2023/12/14 04:17:31;;;;;;;18.67;15.13;;;7.10;99.90;;;;;;5116991;28;20180;-62
2023/12/14 04:19:57;;;;;;;19.13;15.18;;;7.10;99.90;;;;;;5118095;28;20172;-62
2023/12/14 04:22:22;;;;;;;19.92;15.52;;;7.10;99.90;;;;;;5117841;28;20234;-62
2023/12/14 04:24:48;;;;;;;20.23;15.90;;;7.10;99.90;;;;;;5117896;28;20172;-61
2023/12/14 04:27:15;;;;;;;20.02;15.77;;;7.00;99.90;;;;;;5117825;28;20180;-61
2023/12/14 04:29:40;;;;;;;19.42;15.05;;;7.10;99.90;;;;;;5117711;28;20181;-61
2023/12/14 04:32:06;;;;;;;19.67;15.57;;;7.00;99.90;;;;;;5117730;28;20176;-62
2023/12/14 04:34:32;;;;;;;17.83;14.32;;;7.00;99.90;;;;;;5117422;28;20180;-62
2023/12/14 04:36:57;;;;;;;20.10;15.70;;;7.00;99.90;;;;;;5117365;28;20625;-62
2023/12/14 04:39:24;;;;;;;17.15;14.18;;;7.00;99.90;;;;;;5117618;28;20198;-62
2023/12/14 04:41:50;;;;;;;18.50;13.75;;;6.90;99.90;;;;;;5117635;28;20204;-62
2023/12/14 04:44:16;;;;;;;18.10;14.32;;;7.00;99.90;;;;;;5117517;28;20185;-61
2023/12/14 04:46:42;;;;;;;17.13;14.40;;;7.00;99.90;;;;;;5117462;28;20264;-62
2023/12/14 04:49:08;;;;;;;17.40;14.95;;;7.00;99.90;;;;;;5117166;28;20259;-62
2023/12/14 04:51:33;;;;;;;16.00;13.05;;;6.90;99.90;;;;;;5117278;28;20208;-62
2023/12/14 04:53:59;;;;;;;17.85;13.88;;;7.00;99.90;;;;;;5117430;28;20187;-61
2023/12/14 04:56:24;;;;;;;17.98;14.35;;;6.90;99.90;;;;;;5117300;28;20504;-62
2023/12/14 04:58:50;;;;;;;19.48;14.18;;;7.00;99.90;;;;;;5117267;28;20576;-62
2023/12/14 05:01:16;;;;;;;16.77;13.43;;;6.90;99.90;;;;;;5117185;28;20305;-62
2023/12/14 05:03:42;;;;;;;15.93;12.02;;;6.90;99.90;;;;;;5117068;28;20181;-61
2023/12/14 05:06:07;;;;;;;16.85;12.82;;;7.00;99.90;;;;;;5117053;28;20173;-62
2023/12/14 05:08:33;;;;;;;14.98;12.45;;;6.90;99.90;;;;;;5116982;27;20215;-62
2023/12/14 05:10:59;;;;;;;14.35;12.27;;;6.90;99.90;;;;;;5116945;28;20201;-61
2023/12/14 05:13:25;;;;;;;14.80;12.80;;;6.90;99.90;;;;;;5116897;28;20173;-62
2023/12/14 05:15:54;;;;;;;15.73;12.48;;;6.80;99.90;;;;;;5116989;28;20168;-61
2023/12/14 05:18:20;;;;;;;16.48;13.02;;;6.80;99.90;;;;;;5116632;28;20626;-62
2023/12/14 05:20:45;;;;;;;18.80;13.80;;;6.70;99.90;;;;;;5116740;28;20272;-61
2023/12/14 05:23:12;;;;;;;17.80;13.82;;;6.80;99.90;;;;;;5116064;28;20225;-62
2023/12/14 05:25:38;;;;;;;19.02;14.02;;;6.80;99.90;;;;;;5115355;28;20596;-62
2023/12/14 05:28:04;;;;;;;16.88;14.27;;;6.80;99.90;;;;;;5116684;28;20200;-62
2023/12/14 05:30:30;;;;;;;21.45;15.90;;;6.80;99.90;;;;;;5116271;28;20669;-61
2023/12/14 05:32:55;;;;;;;18.70;13.68;;;6.80;99.90;;;;;;5116674;28;20209;-62
2023/12/14 05:35:21;;;;;;;18.75;13.88;;;6.80;99.90;;;;;;5116469;28;20173;-62
2023/12/14 05:37:47;;;;;;;18.00;13.30;;;6.90;99.90;;;;;;5116525;28;20259;-62
2023/12/14 05:40:13;;;;;;;19.70;12.80;;;6.80;99.90;;;;;;5116554;28;20184;-61
2023/12/14 05:42:39;;;;;;;20.08;13.23;;;6.80;99.90;;;;;;5116441;28;20176;-61
2023/12/14 05:45:06;;;;;;;18.65;12.88;;;6.90;99.90;;;;;;5116322;28;20532;-61
2023/12/14 05:47:34;;;;;;;16.13;12.45;;;6.80;99.90;;;;;;5116294;28;20205;-62
2023/12/14 05:50:00;;;;;;;15.75;11.93;;;6.80;99.90;;;;;;5116123;28;20666;-61
2023/12/14 05:52:26;;;;;;;15.65;11.13;;;6.80;99.90;;;;;;5116045;28;20169;-61
2023/12/14 05:54:51;;;;;;;17.10;10.80;;;6.90;99.90;;;;;;5115940;28;20622;-62
2023/12/14 05:57:17;;;;;;;15.82;11.10;;;6.90;99.90;;;;;;5116168;28;20180;-62
2023/12/14 05:59:43;;;;;;;14.13;11.15;;;6.90;99.90;;;;;;5116096;28;20186;-60
2023/12/14 06:02:08;;;;;;;14.27;10.38;;;6.90;99.90;;;;;;5115662;28;20173;-61
2023/12/14 06:04:34;;;;;;;15.88;10.52;;;6.90;99.90;;;;;;5115554;28;20177;-60
2023/12/14 06:07:06;;;;;;;16.45;10.20;;;6.90;99.90;;;;;;5115932;28;20177;-60
2023/12/14 06:09:34;;;;;;;15.00;9.98;;;6.90;99.90;;;;;;5115861;28;20176;-61
2023/12/14 06:12:04;;;;;;;13.20;9.73;;;6.90;99.90;;;;;;5115831;28;20177;-61
2023/12/14 06:14:30;;;;;;;13.75;10.23;;;6.90;99.90;;;;;;5115829;28;20165;-60
2023/12/14 06:16:55;;;;;;;15.68;10.15;;;6.80;99.90;;;;;;5115722;28;20206;-61
2023/12/14 06:19:21;;;;;;;14.63;9.55;;;6.80;99.90;;;;;;5115453;28;20180;-60
2023/12/14 06:21:48;;;;;;;13.38;8.82;;;6.80;99.90;;;;;;5115361;28;20316;-61
2023/12/14 06:24:13;;;;;;;14.45;8.85;;;6.90;99.90;;;;;;5115599;28;20184;-60
2023/12/14 06:26:43;;;;;;;10.70;7.50;;;6.90;99.90;;;;;;5115591;28;20161;-61
2023/12/14 06:29:09;;;;;;;11.50;7.70;;;6.90;99.90;;;;;;5115212;28;20688;-61
2023/12/14 06:31:35;;;;;;;9.05;6.70;;;6.90;99.90;;;;;;5115095;28;20568;-61
2023/12/14 06:34:03;;;;;;;12.32;7.75;;;6.80;99.90;;;;;;5115404;28;20203;-60
2023/12/14 06:36:33;;;;;;;8.43;6.72;;;6.80;99.90;;;;;;5115254;28;20529;-60
2023/12/14 06:39:00;;;;;;;10.02;7.10;;;6.70;99.90;;;;;;5114697;28;20645;-61
2023/12/14 06:41:27;;;;;;;10.70;6.88;;;6.60;99.90;;;;;;5115116;28;20226;-61
2023/12/14 06:43:53;;;;;;;11.57;7.35;;;6.60;99.90;;;;;;5115162;28;20165;-61
2023/12/14 06:46:19;;;;;;;11.23;7.60;;;6.70;99.90;;;;;;5115145;28;20571;-60
2023/12/14 06:48:45;;;;;;;11.27;8.40;;;6.60;99.90;;;;;;5115063;28;20256;-61
2023/12/14 06:51:11;;;;;;;9.48;7.72;;;6.60;99.90;;;;;;5114974;28;20645;-60
2023/12/14 06:53:40;;;;;;;11.35;7.72;;;6.50;99.90;;;;;;5114996;28;20189;-61
2023/12/14 06:56:09;;;;;;;10.23;7.20;;;6.30;99.90;;;;;;5114908;28;20165;-61
2023/12/14 06:58:35;;;;;;;12.85;7.93;;;6.30;99.90;;;;;;5114867;28;20173;-61
2023/12/14 07:01:01;;;;;;;10.63;7.80;;;6.20;99.90;;;;;;5114785;28;20181;-61
2023/12/14 07:03:26;;;;;;;9.43;7.60;;;6.20;99.90;;;;;;5114937;28;20251;-61
2023/12/14 07:05:52;;;;;;;9.07;7.35;;;6.30;99.90;;;;;;5114753;28;20187;-61
2023/12/14 07:08:17;;;;;;;12.10;8.05;;;6.40;99.90;;;;;;5114764;28;20263;-61
2023/12/14 07:10:43;;;;;;;12.05;8.07;;;6.50;99.90;;;;;;5114544;28;20241;-61
2023/12/14 07:13:09;;;;;;;11.75;8.95;;;6.50;99.90;;;;;;5114947;28;20263;-61
2023/12/14 07:15:34;;;;;;;11.88;9.73;;;6.70;99.90;;;;;;5114311;28;20164;-61
2023/12/14 07:18:00;;;;;;;13.32;9.10;;;6.70;99.90;;;;;;5114592;28;20184;-61
2023/12/14 07:20:25;;;;;;;12.98;9.05;;;6.80;99.90;;;;;;5114518;28;20184;-61
2023/12/14 07:22:51;;;;;;;12.70;9.32;;;6.80;99.90;;;;;;5114488;28;20217;-61
2023/12/14 07:25:17;;;;;;;11.90;8.82;;;6.90;99.90;;;;;;5114179;28;20184;-61
2023/12/14 07:27:43;;;;;;;12.90;9.43;;;6.90;99.90;;;;;;5114353;28;20510;-60
2023/12/14 07:30:09;;;;;;;12.52;9.20;;;6.90;99.90;;;;;;5114359;28;20200;-61
2023/12/14 07:32:35;;;;;;;14.88;9.15;;;7.00;99.90;;;;;;5114330;28;20173;-61
2023/12/14 07:35:01;;;;;;;12.73;9.20;;;7.00;99.90;;;;;;5114331;28;20553;-61
2023/12/14 07:37:26;;;;;;;14.38;9.57;;;7.10;99.90;;;;;;5114008;28;20200;-61
2023/12/14 07:39:52;;;;;;;13.02;8.82;;;7.10;99.90;;;;;;5114371;28;20196;-61
2023/12/14 07:42:19;;;;;;;14.25;8.95;;;6.90;99.90;;;;;;5114183;28;20176;-61
2023/12/14 07:44:46;;;;;;;12.02;9.10;;;6.90;99.90;;;;;;5114101;28;20185;-60
2023/12/14 07:47:11;;;;;;;14.20;9.05;;;7.00;99.90;;;;;;5114104;28;20176;-61
2023/12/14 07:49:37;;;;;;;11.93;8.18;;;7.00;99.90;;;;;;5113971;28;20230;-61
2023/12/14 07:52:03;;;;;;;10.90;8.75;;;7.10;99.90;;;;;;5113254;28;20173;-61
2023/12/14 07:54:29;;;;;;;13.40;9.00;;;7.10;99.90;;;;;;5113733;28;20639;-60
2023/12/14 07:56:55;;;;;;;12.48;8.73;;;7.00;99.90;;;;;;5113993;28;20173;-61
2023/12/14 07:59:20;;;;;;;13.30;8.75;;;7.00;99.90;;;;;;5113977;28;20230;-61
2023/12/14 08:01:47;;;;;;;14.20;9.32;;;7.00;99.90;;;;;;5113809;28;20181;-61
2023/12/14 08:04:12;;;;;;;12.23;9.40;;;6.80;99.90;;;;;;5113641;28;20580;-61
2023/12/14 08:06:42;;;;;;;12.30;8.50;;;6.70;99.90;;;;;;5113897;28;20174;-61
2023/12/14 08:09:08;;;;;;;13.23;8.18;;;6.70;99.90;;;;;;5113929;28;20631;-61
2023/12/14 08:11:34;;;;;;;10.20;7.65;;;6.70;99.90;;;;;;5113728;28;20249;-61
2023/12/14 08:13:59;;;;;;;10.45;7.93;;;6.70;99.90;;;;;;5113808;28;20169;-61
2023/12/14 08:16:25;;;;;;;11.05;7.82;;;6.70;99.90;;;;;;5113853;28;20176;-61
2023/12/14 08:18:51;;;;;;;11.82;7.63;;;6.70;99.90;;;;;;5113819;28;20523;-61
2023/12/14 08:21:18;;;;;;;13.20;7.78;;;6.70;99.90;;;;;;5113540;28;20210;-61
2023/12/14 08:23:43;;;;;;;11.13;8.05;;;6.70;99.90;;;;;;5113805;28;20186;-61
2023/12/14 08:26:11;;;;;;;11.63;8.02;;;6.70;99.90;;;;;;5113799;28;20173;-61
2023/12/14 08:28:37;;;;;;;9.48;7.72;;;6.80;99.90;;;;;;5113654;28;20185;-61
2023/12/14 08:31:04;;;;;;;14.32;9.15;;;6.90;99.90;;;;;;5113610;28;20239;-61
2023/12/14 08:33:30;;;;;;;12.40;9.13;;;7.00;99.90;;;;;;5113694;28;20594;-61
2023/12/14 08:35:56;;;;;;;12.23;8.52;;;7.10;99.90;;;;;;5113604;28;20179;-61
2023/12/14 08:38:22;;;;;;;13.98;9.20;;;7.30;99.90;;;;;;5113624;28;20174;-61
2023/12/14 08:40:47;;;;;;;10.85;8.52;;;7.40;99.90;;;;;;5113602;28;20622;-60
2023/12/14 08:43:13;;;;;;;13.93;8.40;;;7.50;99.90;;;;;;5113623;28;20170;-61
2023/12/14 08:45:39;;;;;;;12.98;7.97;;;7.50;99.90;;;;;;5113537;28;20172;-62
2023/12/14 08:48:05;;;;;;;9.90;8.05;;;7.50;99.90;;;;;;5113520;28;20181;-61
2023/12/14 08:50:31;;;;;;;13.38;8.10;;;7.60;99.90;;;;;;5113464;28;20197;-61
2023/12/14 08:52:59;;;;;;;11.50;7.82;;;7.60;99.90;;;;;;5113258;28;20173;-61
2023/12/14 08:55:25;;;;;;;12.13;7.60;;;7.60;99.90;;;;;;5113398;28;20184;-61
2023/12/14 08:57:50;;;;;;;11.18;7.65;;;7.70;99.90;;;;;;5113395;28;20169;-61
2023/12/14 09:00:17;;;;;;;11.80;7.18;;;7.70;99.90;;;;;;5113407;28;20656;-61
2023/12/14 09:02:46;;;;;;;12.25;7.43;;;7.80;99.90;;;;;;5115059;28;20177;-61
2023/12/14 09:05:13;;;;;;;8.05;6.75;;;7.90;99.90;;;;;;5116894;28;20174;-61
2023/12/14 09:07:39;;;;;;;8.93;6.72;;;7.90;99.90;;;;;;5117142;28;20173;-61
2023/12/14 09:10:06;;;;;;;7.97;6.57;;;8.00;99.90;;;;;;5117017;28;20193;-61
2023/12/14 09:12:33;;;;;;;9.10;6.45;;;7.90;99.90;;;;;;5116956;28;20177;-61
2023/12/14 09:14:59;;;;;;;9.95;6.65;;;7.90;99.90;;;;;;5116883;28;20161;-61
2023/12/14 09:17:24;;;;;;;9.07;6.60;;;8.00;99.90;;;;;;5116930;28;20208;-61
2023/12/14 09:19:50;;;;;;;9.93;7.15;;;8.10;99.90;;;;;;5116781;28;20197;-61
2023/12/14 09:22:16;;;;;;;10.18;7.10;;;8.10;99.90;;;;;;5116636;28;20225;-61
2023/12/14 09:24:43;;;;;;;10.32;7.05;;;8.10;99.90;;;;;;5116728;28;20556;-61
2023/12/14 09:27:08;;;;;;;10.20;7.15;;;8.10;99.90;;;;;;5116457;28;20184;-61
2023/12/14 09:29:34;;;;;;;10.73;7.93;;;8.10;99.90;;;;;;5116603;28;20169;-61
2023/12/14 09:32:00;;;;;;;9.63;7.03;;;8.10;99.90;;;;;;5116661;28;20281;-61
2023/12/14 09:34:25;;;;;;;9.32;6.85;;;8.20;99.90;;;;;;5116322;28;20556;-61
2023/12/14 09:36:52;;;;;;;10.52;6.38;;;8.20;99.90;;;;;;5116191;28;20200;-61
2023/12/14 09:39:19;;;;;;;9.35;6.57;;;8.20;99.90;;;;;;5116445;28;20646;-61
2023/12/14 09:41:46;;;;;;;8.30;6.65;;;8.20;99.90;;;;;;5116459;28;20181;-61
2023/12/14 09:44:12;;;;;;;10.40;6.85;;;8.30;99.90;;;;;;5116312;28;20238;-60
2023/12/14 09:46:38;;;;;;;7.90;6.43;;;8.30;99.90;;;;;;5116313;28;20665;-61
2023/12/14 09:49:05;;;;;;;10.20;6.82;;;8.30;99.90;;;;;;5116327;28;20173;-61
2023/12/14 09:51:31;;;;;;;10.23;6.38;;;8.40;99.90;;;;;;5116110;28;20196;-61
2023/12/14 09:53:58;;;;;;;6.93;5.55;;;8.40;99.90;;;;;;5116214;28;20176;-61
2023/12/14 09:56:27;;;;;;;9.90;5.53;;;8.30;99.90;;;;;;5116165;28;20180;-61
2023/12/14 09:58:53;;;;;;;7.68;6.07;;;8.40;99.90;;;;;;5116091;28;20183;-61
2023/12/14 10:01:26;;;;;;;6.78;5.55;;;8.30;99.90;;;;;;5116027;28;20177;-61
2023/12/14 10:04:15;;;;;;;9.15;5.60;;;8.20;99.90;;;;;;5116048;28;20173;-61
2023/12/14 10:06:42;;;;;;;8.00;5.40;;;8.20;99.90;;;;;;5115993;28;20173;-61
2023/12/14 10:09:18;;;;;;;7.65;5.03;;;8.30;99.90;;;;;;5115921;28;20553;-61
2023/12/14 10:11:44;;;;;;;8.45;5.43;;;8.30;99.90;;;;;;5115836;28;20606;-61
2023/12/14 10:14:24;;;;;;;8.02;5.43;;;8.30;99.90;;;;;;5114957;28;20236;-61
2023/12/14 10:16:50;;;;;;;9.52;5.45;;;8.40;99.90;;;;;;5115879;28;20172;-61
2023/12/14 10:19:19;;;;;;;8.52;5.55;;;8.50;99.90;;;;;;5115690;28;20173;-61
2023/12/14 10:21:49;;;;;;;9.82;5.65;;;8.50;99.90;;;;;;5115323;28;20229;-61
2023/12/14 10:24:15;;;;;;;7.55;5.50;;;8.60;99.90;;;;;;5115526;28;20169;-61
2023/12/14 10:26:41;;;;;;;9.00;5.72;;;8.70;99.90;;;;;;5115296;28;20523;-61
2023/12/14 10:29:07;;;;;;;8.73;5.50;;;8.60;99.90;;;;;;5115468;28;20182;-61
2023/12/14 10:31:37;;;;;;;7.55;6.18;;;8.70;99.90;;;;;;5115405;28;20205;-61
2023/12/14 10:34:04;;;;;;;9.65;5.80;;;8.80;99.90;;;;;;5115390;28;20213;-61
2023/12/14 10:36:31;;;;;;;9.65;5.93;;;8.80;99.90;;;;;;5115418;28;20207;-61
2023/12/14 10:39:01;;;;;;;7.00;5.43;;;8.90;99.90;;;;;;5115342;28;20169;-61
2023/12/14 10:41:30;;;;;;;7.82;5.43;;;8.90;99.90;;;;;;5115284;28;20630;-60
2023/12/14 10:43:56;;;;;;;8.30;5.28;;;9.00;99.90;;;;;;5114901;28;20174;-61
2023/12/14 10:46:23;;;;;;;8.00;5.43;;;9.00;99.90;;;;;;5115123;28;20161;-61
2023/12/14 10:48:52;;;;;;;9.60;5.70;;;8.90;99.90;;;;;;5115174;28;20276;-61
2023/12/14 10:51:20;;;;;;;8.48;6.07;;;9.00;99.90;;;;;;5115015;28;20233;-61
2023/12/14 10:53:49;;;;;;;7.88;5.28;;;9.10;99.90;;;;;;5115039;28;20170;-61
2023/12/14 10:56:16;;;;;;;10.68;5.65;;;9.10;99.90;;;;;;5114992;28;20215;-60
2023/12/14 10:58:53;;;;;;;7.63;5.80;;;9.10;99.90;;;;;;5114893;28;20177;-61
2023/12/14 11:01:24;;;;;;;9.75;5.95;;;9.10;99.90;;;;;;5114925;28;20169;-61
2023/12/14 11:03:53;;;;;;;8.73;5.38;;;9.10;99.90;;;;;;5114763;28;20187;-60
2023/12/14 11:06:31;;;;;;;11.70;6.40;;;9.10;99.90;;;;;;5114822;28;20638;-61
2023/12/14 11:09:08;;;;;;;9.27;5.18;;;9.00;99.90;;;;;;5114493;28;20695;-61
2023/12/14 11:11:43;;;;;;;8.85;5.03;;;8.90;99.90;;;;;;5114583;28;20208;-61
2023/12/14 11:14:12;;;;;;;7.25;5.03;;;8.80;99.90;;;;;;5114963;28;20211;-61
2023/12/14 11:16:46;;;;;;;5.75;4.68;;;9.00;99.90;;;;;;5114605;28;20164;-61
2023/12/14 11:19:28;;;;;;;7.88;5.07;;;9.00;99.90;;;;;;5114642;28;20169;-61
2023/12/14 11:21:57;;;;;;;9.18;5.60;;;8.90;99.90;;;;;;5114191;28;20229;-61
2023/12/14 11:24:23;;;;;;;7.82;4.75;;;8.90;99.90;;;;;;5114504;28;20184;-60
2023/12/14 11:26:52;;;;;;;7.85;4.88;;;8.80;99.90;;;;;;5114320;28;20169;-61
2023/12/14 11:29:19;;;;;;;7.18;5.15;;;8.90;99.90;;;;;;5114417;28;20173;-60
2023/12/14 11:31:45;;;;;;;8.57;5.30;;;8.90;99.90;;;;;;5114335;28;20201;-61
2023/12/14 11:34:11;;;;;;;9.27;5.15;;;9.00;99.90;;;;;;5114314;28;20182;-61
2023/12/14 11:36:39;;;;;;;7.88;4.88;;;8.90;99.90;;;;;;5114296;28;20184;-61
2023/12/14 11:39:05;;;;;;;10.73;5.78;;;9.00;99.90;;;;;;5114497;28;20268;-60
2023/12/14 11:41:33;;;;;;;6.72;5.47;;;8.90;99.90;;;;;;5114166;28;20305;-60
2023/12/14 11:43:59;;;;;;;9.60;5.95;;;8.80;99.90;;;;;;5114117;28;20298;-61
2023/12/14 11:46:25;;;;;;;10.07;5.68;;;8.80;99.90;;;;;;5113898;28;20182;-61
2023/12/14 11:48:51;;;;;;;8.23;5.15;;;8.80;99.90;;;;;;5114130;28;20253;-61
2023/12/14 11:51:17;;;;;;;12.57;5.70;;;8.70;99.90;;;;;;5113743;28;20708;-61
2023/12/14 11:53:50;;;;;;;11.15;5.93;;;8.70;99.90;;;;;;5114377;28;20169;-61
2023/12/14 11:56:20;;;;;;;9.40;5.93;;;8.60;99.90;;;;;;5113698;28;20697;-61
2023/12/14 11:58:47;;;;;;;9.80;5.85;;;8.60;99.90;;;;;;5113989;28;20256;-61
2023/12/14 12:01:13;;;;;;;10.43;6.93;;;8.60;99.90;;;;;;5113994;28;20209;-60
2023/12/14 12:03:39;;;;;;;10.68;5.95;;;8.50;99.90;;;;;;5113949;28;20273;-61
2023/12/14 12:06:05;;;;;;;9.07;6.68;;;8.50;99.90;;;;;;5113679;28;20200;-61
2023/12/14 12:08:31;;;;;;;10.35;6.60;;;8.60;99.90;;;;;;5113893;28;20197;-61
2023/12/14 12:10:57;;;;;;;11.80;7.32;;;8.50;99.90;;;;;;5113831;28;20204;-61
2023/12/14 12:13:22;;;;;;;9.25;6.95;;;8.60;99.90;;;;;;5113874;28;20218;-61
2023/12/14 12:15:48;;;;;;;14.10;7.80;;;8.70;99.90;;;;;;5113880;28;20662;-60
2023/12/14 12:18:16;;;;;;;14.23;8.30;;;8.70;99.90;;;;;;5113850;28;20192;-61
2023/12/14 12:20:42;;;;;;;13.75;7.68;;;8.70;99.90;;;;;;5113788;28;20185;-61
2023/12/14 12:23:08;;;;;;;11.45;7.95;;;8.80;99.90;;;;;;5113378;28;20625;-60
2023/12/14 12:25:34;;;;;;;14.63;8.50;;;8.80;99.90;;;;;;5113758;28;20169;-60
2023/12/14 12:28:01;;;;;;;12.07;8.55;;;8.80;99.90;;;;;;5113752;28;20165;-60
2023/12/14 12:30:27;;;;;;;12.32;8.23;;;8.90;99.90;;;;;;5113638;28;20209;-60
2023/12/14 12:32:55;;;;;;;11.52;7.65;;;8.90;99.90;;;;;;5113661;28;20166;-61
2023/12/14 12:35:22;;;;;;;10.90;7.10;;;8.90;99.90;;;;;;5113664;28;20181;-61
2023/12/14 12:37:53;;;;;;;11.15;7.15;;;8.90;99.90;;;;;;5115610;28;20268;-60
2023/12/14 12:40:23;;;;;;;11.48;7.88;;;9.00;99.90;;;;;;5117950;28;20236;-61